Time;durP1;ratioP1;P1;durP2;ratioP2;P2;SDS_P1;SDS_P2;PMS_P1;PMS_P2;Temp;Humidity;BMP_temperature;BMP_pressure;BME280_temperature;BME280_humidity;BME280_pressure;Samples;Min_cycle;Max_cycle;Signal;HPM_P1;HPM_P2
2021/12/18 00:01:36;;;;;;;6.10;2.10;;;;;;;5.31;64.47;100675.04;117290;1186;21892;-57
2021/12/18 00:04:05;;;;;;;5.80;2.90;;;;;;;5.29;64.51;100681.27;117306;1186;21856;-57
2021/12/18 00:06:33;;;;;;;8.30;2.40;;;;;;;5.27;64.36;100681.42;117311;1183;22615;-57
2021/12/18 00:09:02;;;;;;;4.80;2.00;;;;;;;5.27;64.18;100680.73;117340;1184;21909;-57
2021/12/18 00:11:41;;;;;;;4.80;2.40;;;;;;;5.28;64.54;100684.39;117275;1179;21860;-60
2021/12/18 00:14:09;;;;;;;5.00;2.00;;;;;;;5.21;64.51;100683.77;117320;1184;21864;-60
2021/12/18 00:16:37;;;;;;;7.40;2.10;;;;;;;5.20;64.74;100685.14;117285;1186;23270;-58
2021/12/18 00:19:06;;;;;;;7.50;2.50;;;;;;;5.13;64.77;100686.77;117291;1186;21856;-57
2021/12/18 00:21:36;;;;;;;5.50;2.10;;;;;;;5.11;64.81;100683.61;117307;1186;21860;-60
2021/12/18 00:24:05;;;;;;;6.40;2.10;;;;;;;5.12;64.68;100681.53;117309;1185;21868;-58
2021/12/18 00:26:34;;;;;;;5.80;2.20;;;;;;;5.09;64.73;100680.09;117181;1182;22934;-58
2021/12/18 00:29:02;;;;;;;5.40;1.90;;;;;;;5.05;64.68;100680.40;117352;1180;21858;-59
2021/12/18 00:31:31;;;;;;;5.20;2.10;;;;;;;5.05;64.93;100680.75;117365;1186;21860;-57
2021/12/18 00:33:59;;;;;;;5.50;2.10;;;;;;;5.05;64.74;100680.06;117213;1185;21906;-60
2021/12/18 00:36:28;;;;;;;4.80;1.90;;;;;;;5.06;64.85;100681.64;117312;1186;21851;-58
2021/12/18 00:38:57;;;;;;;5.40;2.10;;;;;;;5.05;64.67;100681.64;117347;1186;22833;-61
2021/12/18 00:44:13;;;;;;;5.80;2.30;;;;;;;5.07;64.72;100681.30;117353;1185;22979;-59
2021/12/18 00:46:45;;;;;;;6.30;2.20;;;;;;;5.09;64.83;100679.75;117320;1186;21888;-59
2021/12/18 00:49:16;;;;;;;5.80;2.90;;;;;;;5.07;64.87;100674.86;117217;1185;21861;-58
2021/12/18 00:51:44;;;;;;;3.70;1.70;;;;;;;5.06;64.59;100677.10;117319;1186;23546;-56
2021/12/18 00:54:12;;;;;;;4.10;2.40;;;;;;;5.04;64.75;100676.05;117321;1186;21860;-58
2021/12/18 00:56:41;;;;;;;4.00;2.10;;;;;;;5.01;64.56;100676.50;117296;1186;21902;-58
2021/12/18 00:59:09;;;;;;;6.90;2.30;;;;;;;5.00;64.52;100677.38;117233;1186;21908;-56
2021/12/18 01:01:39;;;;;;;3.30;1.50;;;;;;;5.02;64.45;100679.48;117312;1185;21861;-58
2021/12/18 01:04:07;;;;;;;6.50;2.20;;;;;;;5.02;64.89;100680.52;117308;1184;21980;-57
2021/12/18 01:06:35;;;;;;;5.70;2.20;;;;;;;5.04;64.72;100676.91;117332;1185;24186;-59
2021/12/18 01:09:04;;;;;;;12.30;2.60;;;;;;;5.09;64.72;100675.58;117309;1185;21856;-59
2021/12/18 01:22:50;;;;;;;8.20;2.50;;;;;;;5.09;64.42;100681.31;117365;1185;21905;-59
2021/12/18 01:25:19;;;;;;;4.70;1.90;;;;;;;5.09;64.28;100681.14;117171;1187;21857;-57
2021/12/18 01:27:49;;;;;;;5.80;2.10;;;;;;;5.10;64.56;100681.67;117305;1183;21861;-59
2021/12/18 01:30:19;;;;;;;7.40;2.50;;;;;;;5.10;64.15;100676.81;117314;1186;22625;-57
2021/12/18 01:32:48;;;;;;;5.50;2.60;;;;;;;5.09;64.46;100680.11;117327;1189;22627;-57
2021/12/18 01:35:17;;;;;;;4.20;2.30;;;;;;;5.07;64.21;100680.78;117382;1180;21983;-59
2021/12/18 01:37:46;;;;;;;3.40;2.10;;;;;;;5.04;64.40;100682.65;117368;1185;22623;-60
2021/12/18 01:40:14;;;;;;;4.60;2.40;;;;;;;5.02;64.20;100679.66;117373;1185;21869;-57
2021/12/18 01:45:34;;;;;;;5.60;2.20;;;;;;;4.97;64.26;100678.54;117286;1185;21891;-59
2021/12/18 01:53:37;;;;;;;4.70;2.30;;;;;;;4.91;64.40;100686.61;117313;1186;23452;-60
2021/12/18 01:56:06;;;;;;;6.20;2.80;;;;;;;4.89;64.47;100687.45;117306;1186;23458;-59
2021/12/18 01:58:36;;;;;;;;;;;;;;;4.89;64.36;100689.53;117343;1186;21844;-57
2021/12/18 02:01:04;;;;;;;4.60;2.30;;;;;;;4.87;64.48;100694.73;117334;1188;21863;-58
2021/12/18 02:03:32;;;;;;;6.20;2.60;;;;;;;4.87;64.37;100693.50;117328;1183;22623;-57
2021/12/18 02:06:02;;;;;;;4.10;2.40;;;;;;;4.88;64.50;100696.99;117331;1186;22911;-57
2021/12/18 02:08:33;;;;;;;6.70;2.90;;;;;;;4.88;64.44;100698.91;117336;1186;22760;-59
2021/12/18 02:11:12;;;;;;;5.60;3.00;;;;;;;4.87;64.57;100700.98;117345;1189;21909;-57
2021/12/18 02:22:03;;;;;;;6.70;2.30;;;;;;;4.88;64.31;100715.09;117326;1185;21861;-59
2021/12/18 02:24:33;;;;;;;6.90;3.00;;;;;;;4.85;64.42;100716.44;117390;1185;22931;-59
2021/12/18 02:27:02;;;;;;;6.00;2.60;;;;;;;4.87;64.69;100713.33;117304;1183;21858;-59
2021/12/18 02:29:32;;;;;;;6.50;3.20;;;;;;;4.88;64.50;100717.17;117408;1185;23008;-59
2021/12/18 02:32:00;;;;;;;6.10;3.20;;;;;;;4.88;64.25;100719.09;117045;1186;21851;-58
2021/12/18 02:34:31;;;;;;;5.90;2.90;;;;;;;4.88;64.45;100719.61;117307;1186;21851;-56
2021/12/18 02:37:05;;;;;;;8.60;2.80;;;;;;;4.89;64.31;100718.23;117309;1186;21864;-56
2021/12/18 02:40:44;;;;;;;5.50;2.60;;;;;;;4.88;64.35;100718.91;117326;1182;21911;-57
2021/12/18 02:42:33;;;;;;;6.00;2.80;;;;;;;4.95;64.33;100726.14;117314;1186;21849;-58
2021/12/18 02:45:05;;;;;;;5.10;2.80;;;;;;;5.01;63.92;100728.52;117308;1186;23812;-58
2021/12/18 02:47:34;;;;;;;7.10;2.60;;;;;;;5.03;64.22;100727.86;117318;1186;21904;-56
2021/12/18 02:50:03;;;;;;;5.10;2.40;;;;;;;4.94;63.87;100734.66;117414;1185;21860;-56
2021/12/18 02:52:32;;;;;;;4.50;2.50;;;;;;;4.88;64.54;100736.12;117399;1186;21850;-56
2021/12/18 02:55:00;;;;;;;6.70;2.70;;;;;;;4.77;64.72;100737.35;117278;1186;21983;-60
2021/12/18 02:57:28;;;;;;;4.00;2.40;;;;;;;4.74;64.66;100744.06;117322;1186;22313;-57
2021/12/18 02:59:58;;;;;;;5.30;2.70;;;;;;;4.70;64.62;100743.64;117123;1186;21863;-56
2021/12/18 03:02:28;;;;;;;4.90;2.40;;;;;;;4.68;64.60;100745.52;117330;1186;21860;-57
2021/12/18 03:05:00;;;;;;;6.40;2.70;;;;;;;4.67;64.67;100749.16;117185;1186;21866;-57
2021/12/18 03:07:30;;;;;;;5.90;2.60;;;;;;;4.66;64.74;100750.88;117311;1186;21899;-57
2021/12/18 03:21:54;;;;;;;5.80;2.40;;;;;;;4.63;65.02;100771.16;117364;1185;21849;-59
2021/12/18 03:24:08;;;;;;;4.90;2.40;;;;;;;4.62;64.82;100774.27;117292;1186;21860;-57
2021/12/18 03:26:37;;;;;;;7.20;2.40;;;;;;;4.61;64.80;100773.23;117349;1183;21862;-59
2021/12/18 03:29:05;;;;;;;5.60;2.90;;;;;;;4.61;64.95;100776.52;117275;1186;21974;-59
2021/12/18 03:31:33;;;;;;;5.00;2.60;;;;;;;4.59;64.73;100777.88;117362;1186;21862;-58
2021/12/18 03:34:01;;;;;;;6.10;3.10;;;;;;;4.59;64.93;100776.30;117319;1186;21859;-58
2021/12/18 03:36:30;;;;;;;7.50;2.70;;;;;;;4.59;65.07;100781.00;117304;1186;21859;-57
2021/12/18 03:39:00;;;;;;;5.40;3.20;;;;;;;4.59;64.92;100783.09;117265;1183;21980;-58
2021/12/18 03:41:28;;;;;;;5.60;2.70;;;;;;;4.60;64.97;100784.85;117334;1186;21849;-59
2021/12/18 03:43:56;;;;;;;4.70;2.70;;;;;;;4.64;64.90;100788.38;117432;1185;23458;-56
2021/12/18 03:46:26;;;;;;;6.80;2.90;;;;;;;4.63;64.90;100788.19;117278;1186;21861;-58
2021/12/18 03:48:54;;;;;;;5.50;3.10;;;;;;;4.67;64.83;100791.40;117361;1185;21974;-58
2021/12/18 03:51:22;;;;;;;4.60;2.90;;;;;;;4.79;64.65;100797.20;117225;1190;21879;-56
2021/12/18 03:53:52;;;;;;;8.40;4.30;;;;;;;4.74;64.72;100796.92;117299;1186;21866;-56
2021/12/18 03:56:20;;;;;;;8.30;4.00;;;;;;;4.73;64.71;100796.73;117368;1186;22931;-55
2021/12/18 03:58:48;;;;;;;5.70;2.80;;;;;;;4.72;64.77;100801.58;117201;1186;21863;-58
2021/12/18 04:01:17;;;;;;;5.40;3.10;;;;;;;4.74;64.74;100801.42;117304;1185;23456;-59
2021/12/18 04:03:49;;;;;;;4.50;3.10;;;;;;;4.76;64.84;100806.86;117341;1176;21858;-59
2021/12/18 04:06:23;;;;;;;5.50;3.00;;;;;;;4.81;64.86;100808.52;117324;1185;21857;-57
2021/12/18 04:08:52;;;;;;;5.90;3.00;;;;;;;4.82;64.68;100809.92;117333;1186;21934;-59
2021/12/18 04:11:20;;;;;;;6.50;3.00;;;;;;;4.82;64.67;100812.73;117354;1185;21858;-59
2021/12/18 04:13:48;;;;;;;4.40;2.70;;;;;;;4.84;64.60;100812.92;117330;1185;21868;-57
2021/12/18 04:16:18;;;;;;;5.70;3.60;;;;;;;4.84;64.68;100817.11;117319;1183;21885;-59
2021/12/18 04:18:46;;;;;;;4.70;2.80;;;;;;;4.81;64.70;100822.27;117328;1188;21881;-57
2021/12/18 04:21:15;;;;;;;6.30;2.70;;;;;;;4.79;64.87;100820.66;117358;1185;22733;-56
2021/12/18 04:23:43;;;;;;;7.20;2.90;;;;;;;4.80;64.64;100824.31;117327;1186;21852;-56
2021/12/18 04:26:13;;;;;;;11.80;2.70;;;;;;;4.82;64.52;100828.03;117247;1186;21913;-57
2021/12/18 04:28:42;;;;;;;7.00;3.10;;;;;;;4.87;64.75;100830.89;117272;1186;22893;-59
2021/12/18 04:31:10;;;;;;;6.20;3.40;;;;;;;4.94;64.73;100834.66;117346;1185;21857;-58
2021/12/18 04:33:39;;;;;;;7.00;3.20;;;;;;;5.01;64.74;100838.45;117333;1186;21850;-59
2021/12/18 04:36:07;;;;;;;6.40;2.70;;;;;;;5.05;64.59;100836.60;117426;1186;21848;-59
2021/12/18 04:38:35;;;;;;;7.80;3.60;;;;;;;5.09;64.46;100843.27;117289;1189;21861;-59
2021/12/18 04:41:05;;;;;;;10.10;4.30;;;;;;;5.10;64.39;100850.41;117376;1185;21902;-59
2021/12/18 04:43:34;;;;;;;6.70;3.50;;;;;;;5.09;64.25;100850.40;117135;1186;22930;-60
2021/12/18 04:46:03;;;;;;;8.80;3.60;;;;;;;5.08;64.74;100854.04;117311;1185;21852;-59
2021/12/18 04:48:32;;;;;;;9.30;3.50;;;;;;;5.08;64.20;100859.27;117380;1185;21862;-59
2021/12/18 04:51:01;;;;;;;7.50;3.30;;;;;;;5.10;64.42;100862.40;117390;1186;21973;-59
2021/12/18 04:53:29;;;;;;;6.60;2.70;;;;;;;5.11;64.58;100864.70;117285;1182;21869;-60
2021/12/18 04:55:57;;;;;;;9.50;3.10;;;;;;;5.11;64.19;100874.45;117376;1187;21860;-59
2021/12/18 04:58:25;;;;;;;5.90;2.60;;;;;;;5.11;64.50;100878.27;117325;1186;21902;-59
2021/12/18 05:00:54;;;;;;;3.90;2.40;;;;;;;5.04;64.56;100883.02;117339;1189;22099;-59
2021/12/18 05:03:23;;;;;;;6.70;2.60;;;;;;;4.95;64.69;100886.52;117264;1186;21858;-60
2021/12/18 05:05:52;;;;;;;7.50;2.60;;;;;;;4.95;64.85;100887.39;117321;1186;21848;-60
2021/12/18 05:08:20;;;;;;;5.70;2.50;;;;;;;4.95;64.88;100891.20;117320;1186;21860;-60
2021/12/18 05:10:48;;;;;;;5.50;2.70;;;;;;;4.95;64.70;100893.98;117279;1185;21911;-60
2021/12/18 05:13:18;;;;;;;7.30;2.80;;;;;;;4.93;64.88;100896.39;117321;1186;21856;-59
2021/12/18 05:15:46;;;;;;;7.50;2.70;;;;;;;4.90;65.21;100899.11;117367;1185;21857;-59
2021/12/18 05:18:14;;;;;;;6.70;2.70;;;;;;;4.94;65.09;100905.45;117298;1186;21849;-59
2021/12/18 05:20:44;;;;;;;6.60;1.80;;;;;;;4.97;64.59;100908.98;117268;1186;21881;-60
2021/12/18 05:23:12;;;;;;;5.40;2.50;;;;;;;5.01;64.50;100913.95;117343;1186;21890;-61
2021/12/18 05:25:40;;;;;;;5.30;2.40;;;;;;;5.02;64.59;100914.29;117251;1186;22624;-60
2021/12/18 05:28:08;;;;;;;5.70;2.30;;;;;;;4.95;64.35;100920.77;117304;1184;21914;-60
2021/12/18 05:30:36;;;;;;;3.80;1.70;;;;;;;4.92;64.61;100920.88;117231;1180;22003;-60
2021/12/18 05:33:05;;;;;;;15.00;2.50;;;;;;;4.89;64.63;100919.94;117319;1185;21875;-59
2021/12/18 05:35:34;;;;;;;2.90;1.90;;;;;;;4.87;64.62;100924.27;117234;1186;23670;-60
2021/12/18 05:38:05;;;;;;;9.40;2.50;;;;;;;4.84;64.62;100930.14;117344;1182;23636;-60
2021/12/18 05:40:35;;;;;;;8.60;2.20;;;;;;;4.79;64.52;100931.58;117312;1186;21863;-60
2021/12/18 05:43:04;;;;;;;5.20;2.20;;;;;;;4.77;64.19;100940.95;117357;1182;22348;-60
2021/12/18 05:45:32;;;;;;;4.00;2.40;;;;;;;4.66;64.34;100939.65;117308;1186;24167;-60
2021/12/18 05:48:00;;;;;;;7.50;2.80;;;;;;;4.62;64.18;100941.67;117232;1186;21860;-60
2021/12/18 05:50:29;;;;;;;4.90;2.50;;;;;;;4.62;63.92;100948.44;117329;1186;21902;-60
2021/12/18 05:52:59;;;;;;;9.50;3.10;;;;;;;4.48;64.01;100954.59;117225;1185;23648;-60
2021/12/18 05:55:29;;;;;;;6.00;2.30;;;;;;;4.33;64.17;100953.21;117180;1186;23462;-59
2021/12/18 05:57:57;;;;;;;12.00;2.80;;;;;;;4.27;64.52;100955.67;117380;1184;21860;-57
2021/12/18 06:00:25;;;;;;;8.60;2.40;;;;;;;4.26;64.76;100954.79;117367;1185;21848;-60
2021/12/18 06:02:54;;;;;;;9.10;2.00;;;;;;;4.28;64.61;100958.14;117388;1182;21859;-59
2021/12/18 06:05:22;;;;;;;9.00;2.50;;;;;;;4.29;64.74;100959.88;117310;1183;23538;-59
2021/12/18 06:07:55;;;;;;;6.20;2.10;;;;;;;4.27;64.61;100964.18;117344;1185;21836;-59
2021/12/18 06:10:28;;;;;;;12.80;2.50;;;;;;;4.20;64.49;100964.38;117185;1183;21864;-59
2021/12/18 06:12:59;;;;;;;7.20;2.70;;;;;;;4.13;64.32;100969.27;117291;1186;21867;-59
2021/12/18 06:15:28;;;;;;;4.40;1.80;;;;;;;4.10;64.34;100978.20;117307;1185;21857;-60
2021/12/18 06:17:57;;;;;;;6.50;2.20;;;;;;;4.00;64.23;100979.71;117160;1186;21874;-59
2021/12/18 06:20:27;;;;;;;8.60;2.00;;;;;;;3.93;64.39;100985.80;117231;1183;22962;-59
2021/12/18 06:22:56;;;;;;;8.60;2.20;;;;;;;3.88;64.30;100989.15;117323;1186;21863;-59
2021/12/18 06:25:24;;;;;;;7.30;1.90;;;;;;;3.90;64.16;100989.03;117311;1186;22913;-59
2021/12/18 06:27:52;;;;;;;6.20;2.30;;;;;;;3.84;64.58;100992.70;117275;1186;21852;-60
2021/12/18 06:30:20;;;;;;;4.60;1.90;;;;;;;3.85;64.52;100993.59;117207;1185;21862;-59
2021/12/18 06:32:48;;;;;;;8.50;2.30;;;;;;;3.90;64.76;100994.23;117297;1183;22902;-60
2021/12/18 06:35:17;;;;;;;12.50;2.60;;;;;;;3.99;65.15;100997.59;117229;1185;21859;-58
2021/12/18 06:37:46;;;;;;;12.40;2.90;;;;;;;4.14;65.14;100998.80;117291;1178;21912;-61
2021/12/18 06:40:18;;;;;;;7.30;3.10;;;;;;;4.27;65.05;101002.08;117368;1183;23644;-58
2021/12/18 06:42:46;;;;;;;6.30;2.70;;;;;;;4.42;65.16;100997.88;117110;1185;21873;-60
2021/12/18 06:45:14;;;;;;;12.90;3.70;;;;;;;4.54;65.18;101001.64;117307;1185;21861;-58
2021/12/18 06:47:42;;;;;;;5.00;2.80;;;;;;;4.65;65.29;101008.32;117325;1185;23472;-59
2021/12/18 06:50:11;;;;;;;4.20;2.60;;;;;;;4.81;65.29;101005.71;117375;1185;21896;-58
2021/12/18 06:52:39;;;;;;;6.90;2.40;;;;;;;4.94;65.16;101007.52;117413;1185;22911;-60
2021/12/18 06:55:08;;;;;;;5.80;3.00;;;;;;;5.03;64.98;101011.38;117305;1186;22728;-58
2021/12/18 06:57:37;;;;;;;7.80;3.00;;;;;;;5.10;64.82;101013.41;117386;1182;21878;-59
2021/12/18 07:00:07;;;;;;;14.60;4.80;;;;;;;5.16;65.16;101015.30;117270;1186;21859;-59
2021/12/18 07:02:36;;;;;;;15.40;6.20;;;;;;;5.23;64.78;101025.17;117289;1185;22952;-58
2021/12/18 07:05:05;;;;;;;11.00;5.50;;;;;;;5.28;64.92;101027.20;117226;1186;21852;-59
2021/12/18 07:07:33;;;;;;;7.20;3.80;;;;;;;5.31;64.73;101030.89;117349;1185;21906;-59
2021/12/18 07:10:04;;;;;;;4.50;2.60;;;;;;;5.36;65.03;101033.61;117296;1186;21879;-59
2021/12/18 07:12:32;;;;;;;4.50;2.00;;;;;;;5.31;65.02;101036.48;117269;1186;21897;-57
2021/12/18 07:15:01;;;;;;;3.40;2.10;;;;;;;5.22;64.58;101034.22;117312;1182;23638;-56
2021/12/18 07:17:29;;;;;;;5.00;2.70;;;;;;;5.17;64.90;101036.70;117265;1183;23699;-57
2021/12/18 07:19:58;;;;;;;4.90;2.10;;;;;;;5.13;64.87;101037.33;117263;1185;22245;-59
2021/12/18 07:22:26;;;;;;;7.80;2.80;;;;;;;5.14;64.73;101040.30;117263;1185;21886;-60
2021/12/18 07:24:54;;;;;;;5.90;3.60;;;;;;;5.25;65.07;101039.48;117272;1186;21871;-59
2021/12/18 07:27:23;;;;;;;6.40;3.30;;;;;;;5.32;64.95;101038.56;117284;1186;21895;-59
2021/12/18 07:29:52;;;;;;;8.10;4.10;;;;;;;5.33;64.83;101041.73;117352;1186;22438;-59
2021/12/18 07:32:22;;;;;;;9.40;4.60;;;;;;;5.33;64.82;101038.94;117335;1182;23474;-59
2021/12/18 07:34:53;;;;;;;8.60;4.70;;;;;;;5.31;64.85;101040.48;117319;1186;23574;-59
2021/12/18 07:37:24;;;;;;;11.80;5.50;;;;;;;5.27;64.81;101038.30;117313;1185;21914;-59
2021/12/18 07:39:52;;;;;;;15.10;9.10;;;;;;;5.27;64.53;101041.77;117234;1183;21862;-59
2021/12/18 07:42:21;;;;;;;15.90;8.50;;;;;;;5.27;64.85;101042.67;117336;1183;21850;-59
2021/12/18 07:44:49;;;;;;;15.60;8.70;;;;;;;5.26;64.83;101044.38;117342;1182;22912;-59
2021/12/18 07:47:18;;;;;;;19.80;11.40;;;;;;;5.30;64.71;101047.75;117356;1185;23464;-60
2021/12/18 07:49:46;;;;;;;23.30;16.60;;;;;;;5.33;64.88;101046.06;117285;1185;21852;-59
2021/12/18 07:52:18;;;;;;;25.30;17.70;;;;;;;5.34;64.66;101047.82;117324;1183;24057;-58
2021/12/18 07:54:46;;;;;;;16.30;12.00;;;;;;;5.37;64.92;101051.88;117374;1186;23498;-58
2021/12/18 07:57:14;;;;;;;13.10;9.60;;;;;;;5.42;64.85;101058.62;117316;1183;21851;-58
2021/12/18 07:59:43;;;;;;;8.20;7.10;;;;;;;5.48;64.59;101062.73;117332;1186;23642;-58
2021/12/18 08:02:11;;;;;;;7.00;5.00;;;;;;;5.54;65.01;101066.48;117351;1183;23653;-59
2021/12/18 08:04:39;;;;;;;7.10;4.60;;;;;;;5.60;64.74;101068.20;117376;1186;23114;-59
2021/12/18 08:07:08;;;;;;;3.50;2.60;;;;;;;5.63;64.86;101073.13;117374;1184;23630;-59
2021/12/18 08:09:36;;;;;;;3.00;2.00;;;;;;;5.64;64.83;101073.84;117505;1181;21857;-59
2021/12/18 08:12:06;;;;;;;3.20;1.90;;;;;;;5.65;64.84;101076.99;117357;1185;22894;-58
2021/12/18 08:14:34;;;;;;;2.80;1.40;;;;;;;5.69;64.92;101075.14;117414;1186;21902;-59
2021/12/18 08:17:03;;;;;;;8.00;1.20;;;;;;;5.70;64.87;101077.59;117218;1186;21860;-59
2021/12/18 08:19:31;;;;;;;2.70;1.30;;;;;;;5.73;65.02;101068.08;117307;1186;24218;-58
2021/12/18 08:22:00;;;;;;;2.50;1.20;;;;;;;5.76;64.95;101071.27;117347;1186;23778;-58
2021/12/18 08:24:28;;;;;;;1.90;1.00;;;;;;;5.80;64.92;101071.69;117351;1185;21898;-59
2021/12/18 08:26:57;;;;;;;2.50;1.20;;;;;;;5.87;64.64;101069.55;117358;1182;23472;-58
2021/12/18 08:29:25;;;;;;;1.20;0.70;;;;;;;5.95;64.66;101067.27;117295;1186;22718;-58
2021/12/18 08:31:54;;;;;;;1.70;1.10;;;;;;;5.97;64.72;101065.91;117333;1186;21860;-59
2021/12/18 08:34:23;;;;;;;3.60;0.90;;;;;;;6.01;64.66;101072.78;117437;1186;21892;-58
2021/12/18 08:36:52;;;;;;;3.10;1.20;;;;;;;6.17;64.84;101071.85;117417;1185;21861;-60
2021/12/18 08:39:20;;;;;;;2.10;1.20;;;;;;;6.25;64.53;101069.54;117349;1186;21859;-59
2021/12/18 08:41:48;;;;;;;2.90;1.00;;;;;;;6.27;64.59;101071.84;117403;1186;22655;-57
2021/12/18 08:44:17;;;;;;;2.30;1.10;;;;;;;6.28;64.16;101072.54;117358;1186;21893;-58
2021/12/18 08:46:45;;;;;;;1.60;0.90;;;;;;;6.28;64.21;101075.67;117320;1186;21870;-58
2021/12/18 08:49:13;;;;;;;2.30;1.00;;;;;;;6.31;64.36;101075.55;117245;1186;22875;-58
2021/12/18 08:51:42;;;;;;;3.30;1.40;;;;;;;6.31;64.24;101068.76;117276;1186;21858;-59
2021/12/18 08:54:11;;;;;;;4.60;2.20;;;;;;;6.29;64.45;101071.88;117302;1183;21881;-57
2021/12/18 08:57:00;;;;;;;4.00;1.40;;;;;;;6.23;64.76;101067.41;117231;1186;21861;-57
2021/12/18 08:59:29;;;;;;;2.70;1.30;;;;;;;6.27;64.49;101069.21;117321;1185;23560;-58
2021/12/18 09:01:57;;;;;;;5.80;3.30;;;;;;;6.29;64.58;101070.64;117237;1186;21985;-57
2021/12/18 09:04:25;;;;;;;15.80;8.80;;;;;;;6.38;64.31;101072.02;117299;1185;23645;-59
2021/12/18 09:06:54;;;;;;;9.60;5.80;;;;;;;6.37;64.40;101068.16;117272;1186;21858;-60
2021/12/18 09:09:22;;;;;;;6.40;3.30;;;;;;;6.35;64.28;101068.48;117304;1185;21901;-58
2021/12/18 09:11:50;;;;;;;4.60;1.70;;;;;;;6.38;64.53;101069.06;117299;1186;22982;-58
2021/12/18 09:14:19;;;;;;;4.20;1.70;;;;;;;6.53;64.29;101068.59;117348;1186;21863;-58
2021/12/18 09:16:47;;;;;;;3.60;1.40;;;;;;;6.56;64.36;101071.77;117186;1186;21874;-59
2021/12/18 09:19:15;;;;;;;2.40;1.50;;;;;;;6.51;64.69;101073.96;117275;1186;21860;-57
2021/12/18 09:21:43;;;;;;;4.60;1.40;;;;;;;6.56;64.59;101072.64;117283;1186;21861;-57
2021/12/18 09:24:11;;;;;;;2.20;1.20;;;;;;;6.65;64.55;101070.34;117292;1183;23482;-57
2021/12/18 09:26:40;;;;;;;5.00;1.30;;;;;;;6.67;64.75;101064.08;117295;1186;23583;-59
2021/12/18 09:29:08;;;;;;;4.00;1.00;;;;;;;6.70;64.79;101067.27;117390;1185;23583;-59
2021/12/18 09:31:37;;;;;;;3.00;1.20;;;;;;;6.78;64.78;101068.79;117311;1186;23496;-59
2021/12/18 09:34:06;;;;;;;1.90;1.10;;;;;;;6.80;65.12;101070.21;117328;1182;23689;-57
2021/12/18 09:36:34;;;;;;;3.10;1.60;;;;;;;6.85;65.17;101069.92;117322;1186;21860;-57
2021/12/18 09:39:03;;;;;;;5.60;2.00;;;;;;;6.93;65.09;101067.95;117308;1181;21848;-59
2021/12/18 09:41:32;;;;;;;19.50;11.10;;;;;;;6.96;64.95;101068.32;117329;1188;21897;-58
2021/12/18 09:44:00;;;;;;;17.90;10.30;;;;;;;7.02;64.78;101064.23;117195;1186;23462;-59
2021/12/18 09:46:30;;;;;;;17.30;10.10;;;;;;;7.06;64.95;101063.06;117326;1186;23517;-60
2021/12/18 09:48:58;;;;;;;8.40;4.90;;;;;;;7.06;65.01;101066.54;117374;1185;21849;-59
2021/12/18 09:51:29;;;;;;;10.70;6.80;;;;;;;7.04;64.82;101064.41;117335;1186;23531;-59
2021/12/18 09:53:58;;;;;;;7.70;4.20;;;;;;;7.08;64.66;101060.27;117249;1185;22466;-59
2021/12/18 09:56:27;;;;;;;5.90;2.30;;;;;;;7.08;64.57;101058.55;117444;1186;23535;-59
2021/12/18 09:58:55;;;;;;;3.70;2.20;;;;;;;7.04;64.62;101059.19;117395;1185;23448;-59
2021/12/18 10:01:23;;;;;;;2.90;1.30;;;;;;;7.08;64.55;101057.66;117288;1185;22884;-59
2021/12/18 10:03:54;;;;;;;2.80;1.90;;;;;;;7.14;64.73;101056.52;117390;1185;22019;-59
2021/12/18 10:06:33;;;;;;;3.40;1.80;;;;;;;7.12;64.76;101063.30;117227;1186;23534;-59
2021/12/18 10:09:17;;;;;;;24.40;8.50;;;;;;;7.15;64.66;101060.55;117389;1185;23461;-59
2021/12/18 10:11:45;;;;;;;3.40;1.70;;;;;;;7.20;64.73;101057.98;117276;1185;23119;-57
2021/12/18 10:14:13;;;;;;;3.00;1.60;;;;;;;7.22;64.58;101059.60;117330;1186;22011;-57
2021/12/18 10:16:47;;;;;;;6.00;4.40;;;;;;;7.21;64.29;101056.96;117320;1186;22656;-57
2021/12/18 10:19:29;;;;;;;2.60;1.70;;;;;;;7.13;64.31;101058.60;117294;1185;21903;-57
2021/12/18 10:22:00;;;;;;;3.80;1.40;;;;;;;7.07;64.44;101055.39;117324;1186;23452;-58
2021/12/18 10:24:28;;;;;;;2.90;1.40;;;;;;;7.10;64.66;101050.35;117308;1186;21873;-58
2021/12/18 10:26:56;;;;;;;11.70;7.00;;;;;;;7.18;64.77;101051.16;117332;1186;21870;-58
2021/12/18 10:29:34;;;;;;;11.50;5.50;;;;;;;7.28;64.77;101049.89;117322;1185;21862;-59
2021/12/18 10:32:07;;;;;;;4.10;3.00;;;;;;;7.39;64.77;101043.91;117335;1182;21856;-59
2021/12/18 10:34:38;;;;;;;2.20;1.40;;;;;;;7.46;64.77;101039.98;117340;1185;22982;-59
2021/12/18 10:37:16;;;;;;;2.00;1.40;;;;;;;7.42;64.44;101040.10;117336;1182;21880;-60
2021/12/18 10:39:59;;;;;;;3.30;0.90;;;;;;;7.37;64.23;101043.35;117399;1186;23617;-59
2021/12/18 10:42:34;;;;;;;2.70;1.30;;;;;;;7.32;64.20;101039.45;117265;1186;22655;-58
2021/12/18 10:45:19;;;;;;;1.70;0.90;;;;;;;7.33;64.06;101048.02;117313;1186;21901;-58
2021/12/18 10:47:57;;;;;;;2.90;1.20;;;;;;;7.10;64.22;101047.05;117293;1184;24184;-58
2021/12/18 10:50:51;;;;;;;7.50;3.90;;;;;;;6.92;64.53;101053.09;117274;1188;21863;-56
2021/12/18 10:53:24;;;;;;;6.80;4.40;;;;;;;6.81;64.57;101055.23;117365;1183;23439;-59
2021/12/18 10:55:54;;;;;;;3.00;1.50;;;;;;;6.75;64.40;101053.21;117352;1182;22626;-57
2021/12/18 10:58:27;;;;;;;;;;;;;;;6.69;64.44;101058.71;117301;1186;22901;-57
2021/12/18 11:01:03;;;;;;;2.30;1.20;;;;;;;6.64;64.32;101058.64;117297;1184;21850;-59
2021/12/18 11:03:32;;;;;;;2.30;1.60;;;;;;;6.62;64.20;101062.61;117401;1185;21859;-60
2021/12/18 11:06:02;;;;;;;2.60;1.60;;;;;;;6.62;64.28;101060.35;117333;1186;22939;-57
2021/12/18 11:08:30;;;;;;;5.20;2.60;;;;;;;6.61;64.27;101065.57;117282;1186;23684;-60
2021/12/18 11:13:50;;;;;;;6.60;2.20;;;;;;;6.54;64.13;101067.91;117442;1185;23460;-58
2021/12/18 11:16:19;;;;;;;6.60;2.60;;;;;;;6.53;64.16;101072.08;117344;1183;21861;-59
2021/12/18 11:18:47;;;;;;;7.90;2.90;;;;;;;6.51;64.23;101071.88;117209;1186;22989;-58
2021/12/18 11:21:15;;;;;;;3.80;2.00;;;;;;;6.51;64.45;101072.39;117229;1186;23605;-57
2021/12/18 11:23:49;;;;;;;4.30;1.70;;;;;;;6.49;64.51;101069.05;117349;1185;21861;-58
2021/12/18 11:26:18;;;;;;;3.00;1.10;;;;;;;6.52;64.68;101070.48;117387;1185;21871;-59
2021/12/18 11:28:49;;;;;;;3.10;1.60;;;;;;;6.59;64.56;101076.00;117228;1187;21861;-58
2021/12/18 11:31:18;;;;;;;1.50;0.70;;;;;;;6.60;64.33;101074.45;117357;1185;21849;-58
2021/12/18 11:33:46;;;;;;;1.10;0.70;;;;;;;6.56;64.16;101071.27;117333;1186;21904;-59
2021/12/18 11:36:14;;;;;;;1.30;0.70;;;;;;;6.52;64.17;101071.53;117354;1183;22619;-57
2021/12/18 11:38:42;;;;;;;1.40;0.60;;;;;;;6.45;64.06;101071.06;117051;1187;23430;-58
2021/12/18 11:41:17;;;;;;;1.70;0.90;;;;;;;6.37;63.79;101070.27;117434;1186;22915;-59
2021/12/18 11:43:47;;;;;;;5.10;3.50;;;;;;;6.32;63.96;101067.91;117371;1186;21871;-58
2021/12/18 11:46:34;;;;;;;2.90;1.60;;;;;;;6.27;64.09;101060.86;117421;1177;21990;-58
2021/12/18 11:49:10;;;;;;;1.90;0.90;;;;;;;6.24;64.02;101058.02;117377;1183;22910;-59
2021/12/18 11:51:38;;;;;;;1.90;1.00;;;;;;;6.24;64.06;101062.03;117365;1185;21851;-60
2021/12/18 11:54:42;;;;;;;2.00;0.90;;;;;;;6.24;64.08;101059.77;117314;1186;23468;-58
2021/12/18 11:57:12;;;;;;;1.70;0.80;;;;;;;6.23;63.91;101062.36;117355;1182;22657;-60
2021/12/18 11:59:44;;;;;;;1.60;0.80;;;;;;;6.18;63.67;101060.02;117362;1185;21882;-59
2021/12/18 12:02:13;;;;;;;5.40;0.70;;;;;;;6.20;64.04;101057.95;117351;1186;23071;-59
2021/12/18 12:05:01;;;;;;;2.00;0.90;;;;;;;6.17;63.72;101059.14;117330;1186;21902;-59
2021/12/18 12:07:29;;;;;;;3.40;1.00;;;;;;;6.08;63.93;101059.67;117292;1186;22003;-57
2021/12/18 12:13:59;;;;;;;3.50;0.80;;;;;;;6.10;64.31;101059.20;117080;1188;22822;-57
2021/12/18 12:16:44;;;;;;;2.40;1.10;;;;;;;6.06;64.29;101065.05;117453;1186;21880;-59
2021/12/18 12:19:18;;;;;;;3.50;0.80;;;;;;;6.09;64.41;101061.08;117363;1186;21892;-59
2021/12/18 12:21:51;;;;;;;4.00;1.70;;;;;;;6.10;64.32;101058.33;117278;1185;21852;-57
2021/12/18 12:24:21;;;;;;;4.10;2.20;;;;;;;6.10;64.26;101059.36;117293;1186;21871;-57
2021/12/18 12:26:50;;;;;;;3.80;1.40;;;;;;;6.11;64.16;101062.69;117329;1186;23473;-60